Time;durP1;ratioP1;P1;durP2;ratioP2;P2;SDS_P1;SDS_P2;PMS_P1;PMS_P2;Temp;Humidity;BMP_temperature;BMP_pressure;BME280_temperature;BME280_humidity;BME280_pressure;Samples;Min_cycle;Max_cycle;Signal;HPM_P1;HPM_P2
2023/02/08 00:01:15;;;;;;;46.10;20.60;;;13.50;2201.60;;;;;;5071670;28;20041;-75
2023/02/08 00:03:41;;;;;;;41.30;18.35;;;13.40;2201.60;;;;;;5068299;28;20067;-75
2023/02/08 00:06:07;;;;;;;;;;;13.40;2201.60;;;;;;5070689;28;20029;-74
2023/02/08 00:08:33;;;;;;;48.70;19.77;;;13.40;2201.60;;;;;;5071653;28;19962;-74
2023/02/08 00:10:59;;;;;;;49.50;20.80;;;13.30;2201.60;;;;;;5071087;28;20053;-75
2023/02/08 00:13:25;;;;;;;;;;;13.40;2201.60;;;;;;5073113;28;20050;-75
2023/02/08 00:15:52;;;;;;;37.00;17.15;;;13.40;2201.60;;;;;;5083934;28;19909;-74
2023/02/08 00:18:18;;;;;;;42.90;18.38;;;13.50;2201.60;;;;;;5068533;28;20025;-74
2023/02/08 00:20:44;;;;;;;;;;;13.50;2201.60;;;;;;5067673;28;20036;-74
2023/02/08 00:23:11;;;;;;;49.08;18.23;;;13.40;2201.60;;;;;;5070056;28;19905;-76
2023/02/08 00:25:38;;;;;;;45.50;18.13;;;13.40;2201.60;;;;;;5084447;28;20031;-75
2023/02/08 00:28:05;;;;;;;38.03;16.77;;;13.40;2201.60;;;;;;5065635;28;20033;-75
2023/02/08 00:30:31;;;;;;;41.35;16.73;;;13.50;2201.60;;;;;;5066016;28;20081;-74
2023/02/08 00:32:58;;;;;;;36.78;17.15;;;13.50;2201.60;;;;;;5068877;28;20123;-75
2023/02/08 00:35:23;;;;;;;40.00;16.02;;;13.60;2201.60;;;;;;5082955;28;20037;-74
2023/02/08 00:37:49;;;;;;;;;;;13.60;2201.60;;;;;;5065104;28;20512;-75
2023/02/08 00:40:15;;;;;;;35.03;15.10;;;13.70;2201.60;;;;;;5070547;28;20004;-75
2023/02/08 00:42:40;;;;;;;;;;;13.60;2201.60;;;;;;5070354;28;20028;-75
2023/02/08 00:45:06;;;;;;;38.75;15.25;;;13.70;2201.60;;;;;;5072365;28;20436;-74
2023/02/08 00:47:32;;;;;;;34.00;15.82;;;13.70;2201.60;;;;;;5072970;28;20044;-75
2023/02/08 00:49:58;;;;;;;;;;;38.40;2201.60;;;;;;5073660;28;20028;-74
2023/02/08 00:52:24;;;;;;;41.95;16.48;;;38.40;2201.60;;;;;;5069722;28;20361;-74
2023/02/08 00:54:49;;;;;;;;;;;13.70;2201.60;;;;;;5075552;28;20029;-75
2023/02/08 00:57:15;;;;;;;37.55;15.82;;;13.70;2201.60;;;;;;5076582;28;20377;-75
2023/02/08 00:59:41;;;;;;;;;;;38.40;2201.60;;;;;;5072382;28;20481;-75
2023/02/08 01:02:07;;;;;;;40.53;16.17;;;13.70;2201.60;;;;;;5075610;28;19912;-75
2023/02/08 01:04:33;;;;;;;32.97;16.77;;;38.40;2201.60;;;;;;5079065;28;20448;-75
2023/02/08 01:06:59;;;;;;;;;;;38.40;2201.60;;;;;;5079434;28;20028;-75
2023/02/08 01:09:24;;;;;;;34.25;15.40;;;13.70;2201.60;;;;;;5093875;28;19913;-75
2023/02/08 01:11:50;;;;;;;;;;;13.60;2201.60;;;;;;5072590;28;20486;-76
2023/02/08 01:14:17;;;;;;;41.58;16.35;;;13.70;2201.60;;;;;;5076362;28;19915;-74
2023/02/08 01:16:43;;;;;;;42.30;16.98;;;13.70;2201.60;;;;;;5077414;28;20020;-75
2023/02/08 01:19:09;;;;;;;;;;;38.40;2201.60;;;;;;5076995;28;20059;-75
2023/02/08 01:21:37;;;;;;;42.03;16.70;;;38.50;2201.60;;;;;;5090936;28;19917;-75
2023/02/08 01:24:04;;;;;;;42.42;20.00;;;38.40;2201.60;;;;;;5077535;28;20021;-73
2023/02/08 01:26:31;;;;;;;46.83;18.52;;;13.70;2201.60;;;;;;5076155;28;20028;-75
2023/02/08 01:28:58;;;;;;;42.63;18.60;;;13.60;2201.60;;;;;;5077390;28;20020;-74
2023/02/08 01:31:38;;;;;;;36.90;16.67;;;13.60;2201.60;;;;;;5076403;28;20033;-74
2023/02/08 01:34:05;;;;;;;38.53;17.92;;;13.50;2201.60;;;;;;5076234;28;20059;-74
2023/02/08 01:36:32;;;;;;;41.03;18.85;;;13.60;2201.60;;;;;;5076046;28;20385;-74
2023/02/08 01:38:58;;;;;;;44.88;17.55;;;13.60;2201.60;;;;;;5076509;28;20021;-74
2023/02/08 01:41:30;;;;;;;41.80;18.42;;;13.60;2201.60;;;;;;5076713;28;20094;-74
2023/02/08 01:44:12;;;;;;;41.30;18.75;;;13.50;2201.60;;;;;;5076076;28;20599;-76
2023/02/08 01:46:42;;;;;;;38.25;19.40;;;13.50;2201.60;;;;;;5091525;28;20028;-75
2023/02/08 01:49:22;;;;;;;41.70;19.77;;;13.50;2201.60;;;;;;5073687;28;20055;-76
2023/02/08 01:52:11;;;;;;;36.80;17.95;;;13.50;2201.60;;;;;;5065778;28;20032;-74
2023/02/08 01:54:40;;;;;;;38.53;19.13;;;13.50;2201.60;;;;;;5074218;28;20032;-74
2023/02/08 01:57:07;;;;;;;39.90;18.02;;;13.40;2201.60;;;;;;5071092;28;20052;-74
2023/02/08 01:59:37;;;;;;;48.10;19.92;;;13.50;2201.60;;;;;;5072709;28;20135;-74
2023/02/08 02:02:06;;;;;;;37.95;17.58;;;13.40;2201.60;;;;;;5073732;28;20439;-75
2023/02/08 02:04:34;;;;;;;36.55;17.13;;;13.60;2201.60;;;;;;5084738;28;20041;-75
2023/02/08 02:07:00;;;;;;;40.92;18.02;;;13.50;2201.60;;;;;;5069697;28;20039;-75
2023/02/08 02:09:41;;;;;;;46.97;18.30;;;13.50;2201.60;;;;;;5072804;28;20032;-75
2023/02/08 02:12:08;;;;;;;40.83;18.33;;;13.60;2201.60;;;;;;5065791;28;20524;-75
2023/02/08 02:14:36;;;;;;;39.67;17.27;;;13.50;2201.60;;;;;;5072546;28;20125;-75
2023/02/08 02:17:02;;;;;;;42.90;18.48;;;13.50;2201.60;;;;;;5071419;28;20107;-74
2023/02/08 02:19:46;;;;;;;;;;;13.60;2201.60;;;;;;5073726;28;20453;-74
2023/02/08 02:22:36;;;;;;;39.03;18.08;;;13.60;2201.60;;;;;;5072070;28;20548;-75
2023/02/08 02:25:44;;;;;;;41.70;18.25;;;13.70;2201.60;;;;;;5071846;28;20024;-74
2023/02/08 02:28:28;;;;;;;30.48;14.38;;;13.60;2201.60;;;;;;5060613;28;20036;-75
2023/02/08 02:31:06;;;;;;;37.90;17.90;;;13.70;2201.60;;;;;;5084233;28;20056;-75
2023/02/08 02:33:41;;;;;;;43.08;19.63;;;13.50;2201.60;;;;;;5066342;28;20039;-74
2023/02/08 02:36:34;;;;;;;47.10;19.20;;;13.50;2201.60;;;;;;5074613;28;20028;-75
2023/02/08 02:39:15;;;;;;;41.15;17.33;;;13.40;2201.60;;;;;;5070741;28;20029;-74
2023/02/08 02:44:48;;;;;;;37.25;16.33;;;13.60;2201.60;;;;;;5073791;28;20123;-74
2023/02/08 02:47:23;;;;;;;44.00;18.75;;;13.70;2201.60;;;;;;5074079;28;20078;-74
2023/02/08 02:50:03;;;;;;;41.17;18.17;;;13.60;2201.60;;;;;;5073922;28;20024;-75
2023/02/08 02:52:45;;;;;;;42.20;18.55;;;13.50;2201.60;;;;;;5072592;28;20107;-75
2023/02/08 02:55:18;;;;;;;37.53;17.40;;;13.60;2201.60;;;;;;5069756;28;20028;-75
2023/02/08 02:57:48;;;;;;;34.50;16.58;;;13.50;2201.60;;;;;;5073832;28;20097;-75
2023/02/08 03:00:24;;;;;;;38.42;17.58;;;13.60;2201.60;;;;;;5071432;28;20048;-74
2023/02/08 03:02:49;;;;;;;40.97;19.05;;;13.60;2201.60;;;;;;5073718;28;20036;-74
2023/02/08 03:05:15;;;;;;;;;;;13.50;2201.60;;;;;;5073555;28;20029;-74
2023/02/08 03:08:02;;;;;;;41.20;18.48;;;13.60;2201.60;;;;;;5072186;28;19904;-74
2023/02/08 03:11:01;;;;;;;34.50;14.82;;;13.60;2201.60;;;;;;5063387;28;20106;-74
2023/02/08 03:13:50;;;;;;;39.70;18.90;;;13.50;2201.60;;;;;;5072703;28;20107;-74
2023/02/08 03:16:18;;;;;;;38.97;17.98;;;13.40;2201.60;;;;;;5061587;28;20482;-74
2023/02/08 03:19:08;;;;;;;51.05;19.83;;;13.40;2201.60;;;;;;5072178;28;20032;-75
2023/02/08 03:21:57;;;;;;;44.22;19.15;;;13.30;2201.60;;;;;;5061284;28;20044;-75
2023/02/08 03:24:45;;;;;;;46.55;20.85;;;13.30;2201.60;;;;;;5086678;28;20074;-75
2023/02/08 03:27:35;;;;;;;45.40;21.60;;;13.20;2201.60;;;;;;5072989;28;20027;-74
2023/02/08 03:30:21;;;;;;;47.78;21.23;;;13.00;2201.60;;;;;;5085716;28;20017;-74
2023/02/08 03:32:55;;;;;;;36.42;16.88;;;13.00;2201.60;;;;;;5087969;28;20462;-75
2023/02/08 03:35:21;;;;;;;44.92;19.90;;;0.00;2201.60;;;;;;5062042;28;20449;-74
2023/02/08 03:38:04;;;;;;;;;;;0.00;2201.60;;;;;;5072317;28;20036;-74
2023/02/08 03:40:37;;;;;;;41.08;19.70;;;12.90;2201.60;;;;;;5079641;28;19912;-75
2023/02/08 03:43:10;;;;;;;41.72;19.20;;;13.00;2201.60;;;;;;5071663;28;20028;-74
2023/02/08 03:45:45;;;;;;;35.00;17.65;;;13.00;2201.60;;;;;;5070663;28;20028;-74
2023/02/08 03:48:12;;;;;;;50.90;18.48;;;13.00;2201.60;;;;;;5071753;28;20031;-75
2023/02/08 03:50:40;;;;;;;39.80;18.27;;;13.00;2201.60;;;;;;5071700;28;20028;-74
2023/02/08 03:53:07;;;;;;;41.92;18.77;;;13.10;2201.60;;;;;;5071704;28;20028;-75
2023/02/08 03:55:36;;;;;;;43.10;19.38;;;13.10;2201.60;;;;;;5072803;28;20501;-74
2023/02/08 03:58:22;;;;;;;41.40;17.42;;;13.10;2201.60;;;;;;5071438;28;20036;-74
2023/02/08 04:00:54;;;;;;;36.17;17.85;;;13.30;2201.60;;;;;;5071998;28;20492;-75
2023/02/08 04:03:26;;;;;;;41.33;18.70;;;13.20;2201.60;;;;;;5071347;28;20028;-75
2023/02/08 04:05:52;;;;;;;40.17;18.08;;;13.10;2201.60;;;;;;5071268;28;20020;-74
2023/02/08 04:08:18;;;;;;;;;;;13.10;2201.60;;;;;;5072019;28;20024;-75
2023/02/08 04:10:45;;;;;;;41.72;17.95;;;13.20;2201.60;;;;;;5072328;28;19980;-75
2023/02/08 04:13:11;;;;;;;36.15;16.80;;;13.20;2201.60;;;;;;5072401;28;20025;-75
2023/02/08 04:15:36;;;;;;;;;;;13.10;2201.60;;;;;;5072752;28;20032;-75
2023/02/08 04:18:02;;;;;;;42.22;17.42;;;13.20;2201.60;;;;;;5075155;28;20388;-75
2023/02/08 04:20:28;;;;;;;;;;;13.40;2201.60;;;;;;5075686;28;20482;-75
2023/02/08 04:22:53;;;;;;;38.75;17.92;;;13.40;2201.60;;;;;;5074198;28;20035;-75
2023/02/08 04:25:19;;;;;;;;;;;13.40;2201.60;;;;;;5075658;28;20025;-75
2023/02/08 04:27:45;;;;;;;35.97;17.58;;;13.40;2201.60;;;;;;5075850;28;19904;-75
2023/02/08 04:30:10;;;;;;;;;;;13.30;2201.60;;;;;;5077188;28;20025;-76
2023/02/08 04:32:36;;;;;;;44.50;19.55;;;13.30;2201.60;;;;;;5074954;28;19904;-74
2023/02/08 04:35:02;;;;;;;;;;;13.30;2201.60;;;;;;5075450;28;20079;-76
2023/02/08 04:37:28;;;;;;;40.22;17.88;;;13.20;2201.60;;;;;;5074728;28;20351;-77
2023/02/08 04:39:53;;;;;;;;;;;13.20;2201.60;;;;;;5074951;28;20041;-75
2023/02/08 04:42:19;;;;;;;49.20;19.05;;;13.10;2201.60;;;;;;5075514;28;20277;-75
2023/02/08 04:44:45;;;;;;;;;;;13.00;2201.60;;;;;;5091336;28;20095;-75
2023/02/08 04:47:10;;;;;;;43.00;20.00;;;13.00;2201.60;;;;;;5075348;28;19911;-75
2023/02/08 04:49:36;;;;;;;;;;;13.00;2201.60;;;;;;5074101;28;20021;-75
2023/02/08 04:52:02;;;;;;;44.25;17.85;;;13.00;2201.60;;;;;;5075021;28;19904;-75
2023/02/08 04:54:27;;;;;;;;;;;13.00;2201.60;;;;;;5075268;28;20032;-75
2023/02/08 04:56:53;;;;;;;39.38;16.80;;;13.00;2201.60;;;;;;5075186;28;20042;-77
2023/02/08 04:59:18;;;;;;;;;;;13.00;2201.60;;;;;;5072514;28;20366;-76
2023/02/08 05:01:44;;;;;;;34.83;15.70;;;13.00;2201.60;;;;;;5075029;28;19966;-77
2023/02/08 05:04:10;;;;;;;;;;;13.00;2201.60;;;;;;5090969;28;20040;-75
2023/02/08 05:06:35;;;;;;;41.45;17.90;;;12.90;2201.60;;;;;;5074733;28;19908;-75
2023/02/08 05:09:01;;;;;;;;;;;12.90;2201.60;;;;;;5091188;28;20024;-74
2023/02/08 05:11:27;;;;;;;41.67;18.70;;;12.90;2201.60;;;;;;5073152;28;19924;-74
2023/02/08 05:13:53;;;;;;;;;;;12.90;2201.60;;;;;;5073690;28;20025;-78
2023/02/08 05:16:19;;;;;;;40.65;17.17;;;12.90;2201.60;;;;;;5074463;28;19932;-78
2023/02/08 05:18:44;;;;;;;;;;;13.00;2201.60;;;;;;5073991;28;20031;-77
2023/02/08 05:21:10;;;;;;;44.40;20.27;;;13.00;2201.60;;;;;;5073304;28;19912;-75
2023/02/08 05:23:36;;;;;;;;;;;12.90;2201.60;;;;;;5073463;28;20082;-74
2023/02/08 05:26:10;;;;;;;36.58;17.50;;;13.00;2201.60;;;;;;5073181;28;19904;-74
2023/02/08 05:28:36;;;;;;;36.95;17.98;;;13.00;2201.60;;;;;;5073377;28;20078;-76
2023/02/08 05:31:18;;;;;;;32.22;17.67;;;13.10;2201.60;;;;;;5074436;28;20021;-75
2023/02/08 05:33:44;;;;;;;40.35;17.65;;;13.20;2201.60;;;;;;5068506;28;20025;-74
2023/02/08 05:36:09;;;;;;;;;;;13.10;2201.60;;;;;;5073564;28;20028;-75
2023/02/08 05:38:35;;;;;;;36.10;18.10;;;13.00;2201.60;;;;;;5072995;28;19908;-75
2023/02/08 05:41:01;;;;;;;;;;;13.10;2201.60;;;;;;5071654;28;20547;-75
2023/02/08 05:43:26;;;;;;;74.20;29.25;;;13.10;2201.60;;;;;;5074194;28;19991;-75
2023/02/08 05:45:52;;;;;;;;;;;13.00;2201.60;;;;;;5074775;28;20028;-75
2023/02/08 05:48:18;;;;;;;48.85;21.45;;;13.10;2201.60;;;;;;5074281;28;19904;-74
2023/02/08 05:50:43;;;;;;;;;;;13.20;2201.60;;;;;;5074661;28;20024;-74
2023/02/08 05:53:09;;;;;;;52.17;19.88;;;13.30;2201.60;;;;;;5072859;28;19908;-74
2023/02/08 05:55:34;;;;;;;;;;;13.30;2201.60;;;;;;5074724;28;20015;-76
2023/02/08 05:58:00;;;;;;;54.55;24.00;;;13.30;2201.60;;;;;;5072628;28;19904;-75
2023/02/08 06:00:26;;;;;;;;;;;13.30;2201.60;;;;;;5073066;28;20019;-75
2023/02/08 06:02:51;;;;;;;52.53;25.65;;;13.40;2201.60;;;;;;5072763;28;20354;-76
2023/02/08 06:05:17;;;;;;;;;;;13.40;2201.60;;;;;;5072410;28;20081;-75
2023/02/08 06:07:43;;;;;;;54.72;22.63;;;13.40;2201.60;;;;;;5094812;28;19931;-75
2023/02/08 06:10:09;;;;;;;;;;;13.50;2201.60;;;;;;5087686;28;20388;-75
2023/02/08 06:12:35;;;;;;;48.55;20.63;;;13.50;2201.60;;;;;;5086400;28;20395;-75
2023/02/08 06:15:01;;;;;;;52.80;20.48;;;13.50;2201.60;;;;;;5087032;28;20028;-74
2023/02/08 06:17:27;;;;;;;58.53;24.52;;;13.20;2201.60;;;;;;5084198;28;20486;-75
2023/02/08 06:19:52;;;;;;;;;;;13.40;2201.60;;;;;;5082239;28;20059;-75
2023/02/08 06:22:18;;;;;;;70.80;28.10;;;13.30;2201.60;;;;;;5082714;28;20304;-74
2023/02/08 06:24:44;;;;;;;;;;;13.30;2201.60;;;;;;5098225;28;20097;-74
2023/02/08 06:27:10;;;;;;;54.10;23.00;;;13.20;2201.60;;;;;;5082223;28;19915;-75
2023/02/08 06:29:35;;;;;;;;;;;13.30;2201.60;;;;;;5084930;28;20030;-75
2023/02/08 06:32:01;;;;;;;51.85;24.55;;;13.30;2201.60;;;;;;5097119;28;19907;-74
2023/02/08 06:34:26;;;;;;;;;;;13.30;2201.60;;;;;;5087251;28;20068;-75
2023/02/08 06:36:52;;;;;;;51.38;23.02;;;13.30;2201.60;;;;;;5085399;28;19908;-75
2023/02/08 06:39:18;;;;;;;;;;;13.30;2201.60;;;;;;5080621;28;20024;-77
2023/02/08 06:41:43;;;;;;;64.20;27.40;;;13.40;2201.60;;;;;;5079540;28;19920;-76
2023/02/08 06:44:09;;;;;;;;;;;13.30;2201.60;;;;;;5074065;28;20051;-77
2023/02/08 06:46:35;;;;;;;56.70;26.75;;;13.20;2201.60;;;;;;5095871;28;20365;-78
2023/02/08 06:49:01;;;;;;;;;;;13.30;2201.60;;;;;;5080677;28;20036;-77
2023/02/08 06:51:27;;;;;;;43.78;20.05;;;13.30;2201.60;;;;;;5070012;28;20357;-76
2023/02/08 06:53:52;;;;;;;42.00;19.88;;;13.30;2201.60;;;;;;5084415;28;20032;-78
2023/02/08 06:56:18;;;;;;;;;;;13.20;2201.60;;;;;;5077580;28;20032;-75
2023/02/08 06:58:44;;;;;;;45.50;19.95;;;13.20;2201.60;;;;;;5082264;28;19909;-76
2023/02/08 07:01:12;;;;;;;;;;;13.30;2201.60;;;;;;5083912;28;20121;-75
2023/02/08 07:03:39;;;;;;;40.97;19.13;;;13.30;2201.60;;;;;;5068818;28;19904;-76
2023/02/08 07:06:10;;;;;;;46.58;18.85;;;13.20;2201.60;;;;;;5081943;28;20119;-75
2023/02/08 07:08:35;;;;;;;45.92;19.67;;;13.20;2201.60;;;;;;5064541;28;20034;-75
2023/02/08 07:11:05;;;;;;;;;;;13.20;2201.60;;;;;;5064146;28;20045;-74
2023/02/08 07:13:31;;;;;;;45.97;18.13;;;13.10;2201.60;;;;;;5077664;28;20369;-74
2023/02/08 07:15:56;;;;;;;;;;;13.20;2201.60;;;;;;5071659;28;20064;-74
2023/02/08 07:18:22;;;;;;;45.85;20.13;;;13.20;2201.60;;;;;;5082943;28;20354;-75
2023/02/08 07:20:48;;;;;;;;;;;13.10;2201.60;;;;;;5076809;28;20434;-74
2023/02/08 07:23:13;;;;;;;45.20;20.10;;;12.90;2201.60;;;;;;5086347;28;20384;-76
2023/02/08 07:25:39;;;;;;;;;;;12.90;2201.60;;;;;;5074762;28;20692;-74
2023/02/08 07:28:04;;;;;;;52.08;20.73;;;12.90;2201.60;;;;;;5078107;28;19912;-74
2023/02/08 07:30:30;;;;;;;;;;;13.10;2201.60;;;;;;5070118;28;20024;-74
2023/02/08 07:32:56;;;;;;;51.10;20.35;;;12.90;2201.60;;;;;;5083038;28;19998;-77
2023/02/08 07:35:21;;;;;;;;;;;0.00;2201.60;;;;;;5079908;28;20024;-77
2023/02/08 07:37:47;;;;;;;43.28;18.45;;;0.10;2201.60;;;;;;5084868;28;20361;-74
2023/02/08 07:40:12;;;;;;;;;;;0.20;2201.60;;;;;;5077970;28;20040;-76
2023/02/08 07:42:38;;;;;;;46.85;20.35;;;0.20;2201.60;;;;;;5074641;28;19917;-75
2023/02/08 07:45:04;;;;;;;;;;;0.10;2201.60;;;;;;5077719;28;20059;-78
2023/02/08 07:47:29;;;;;;;48.40;20.25;;;0.10;2201.60;;;;;;5086659;28;19957;-77
2023/02/08 07:49:55;;;;;;;;;;;0.20;2201.60;;;;;;5074254;28;20468;-76
2023/02/08 07:52:21;;;;;;;44.08;20.88;;;0.30;2201.60;;;;;;5067768;28;19911;-76
2023/02/08 07:54:46;;;;;;;;;;;0.20;2201.60;;;;;;5064487;28;20017;-76
2023/02/08 07:57:15;;;;;;;41.05;19.10;;;0.50;2201.60;;;;;;5074956;28;20281;-76
2023/02/08 07:59:40;;;;;;;41.50;19.58;;;0.50;2201.60;;;;;;5068129;28;20031;-75
2023/02/08 08:02:07;;;;;;;;;;;0.50;2201.60;;;;;;5073452;28;20367;-75
2023/02/08 08:04:33;;;;;;;29.23;14.63;;;0.50;2201.60;;;;;;5085487;28;19909;-75
2023/02/08 08:06:58;;;;;;;;;;;0.40;2201.60;;;;;;5060188;28;20166;-75
2023/02/08 08:09:24;;;;;;;42.30;18.02;;;0.60;2201.60;;;;;;5081772;28;20362;-76
2023/02/08 08:11:50;;;;;;;;;;;0.80;2201.60;;;;;;5062656;28;20045;-76
2023/02/08 08:14:16;;;;;;;34.22;15.70;;;0.80;2201.60;;;;;;5089287;28;20381;-75
2023/02/08 08:16:42;;;;;;;;;;;0.90;2201.60;;;;;;5090099;28;20030;-74
2023/02/08 08:19:08;;;;;;;41.90;20.05;;;25.60;2201.60;;;;;;5065376;28;20265;-74
2023/02/08 08:21:33;;;;;;;;;;;25.70;2201.60;;;;;;5077645;28;20040;-75
2023/02/08 08:23:59;;;;;;;44.42;20.42;;;25.80;2201.60;;;;;;5073312;28;19913;-75
2023/02/08 08:26:25;;;;;;;;;;;25.70;2201.60;;;;;;5075950;28;20021;-75
2023/02/08 08:28:50;;;;;;;47.63;22.02;;;25.60;2201.60;;;;;;5069190;28;19909;-75
2023/02/08 08:31:17;;;;;;;;;;;25.60;2201.60;;;;;;5082388;28;20024;-75
2023/02/08 08:33:43;;;;;;;41.22;16.02;;;25.90;2201.60;;;;;;5076480;28;20047;-77
2023/02/08 08:36:09;;;;;;;;;;;25.90;2201.60;;;;;;5069446;28;20123;-77
2023/02/08 08:38:37;;;;;;;45.67;21.73;;;25.70;2201.60;;;;;;5065801;28;19967;-77
2023/02/08 08:41:16;;;;;;;45.30;21.25;;;25.60;2201.60;;;;;;5081013;28;20040;-77
2023/02/08 08:43:42;;;;;;;45.78;23.23;;;0.90;2201.60;;;;;;5061782;28;20033;-77
2023/02/08 08:46:08;;;;;;;;;;;0.80;2201.60;;;;;;5073254;28;20085;-78
2023/02/08 08:48:35;;;;;;;47.72;22.13;;;0.90;2201.60;;;;;;5075744;28;19904;-77
2023/02/08 08:51:01;;;;;;;52.90;24.10;;;25.60;2201.60;;;;;;5073700;28;20032;-78
2023/02/08 08:53:27;;;;;;;46.83;21.20;;;25.80;2201.60;;;;;;5072254;28;20111;-78
2023/02/08 08:55:52;;;;;;;;;;;26.00;2201.60;;;;;;5072745;28;20115;-77
2023/02/08 08:58:18;;;;;;;47.40;21.40;;;26.10;2201.60;;;;;;5067990;28;19908;-78
2023/02/08 09:00:44;;;;;;;;;;;26.00;2201.60;;;;;;5074463;28;20032;-76
2023/02/08 09:03:09;;;;;;;40.80;20.10;;;26.20;2201.60;;;;;;5062281;28;20003;-80
2023/02/08 09:05:35;;;;;;;;;;;25.90;2201.60;;;;;;5084526;28;20464;-77
2023/02/08 09:08:02;;;;;;;41.25;18.45;;;26.00;2201.60;;;;;;5075516;28;20426;-77
2023/02/08 09:10:28;;;;;;;52.08;22.98;;;26.00;2201.60;;;;;;5084447;28;20048;-77
2023/02/08 09:12:54;;;;;;;44.53;19.70;;;26.20;2201.60;;;;;;5075563;28;20394;-79
2023/02/08 09:15:20;;;;;;;;;;;26.50;2201.60;;;;;;5092287;28;20024;-77
2023/02/08 09:17:45;;;;;;;41.72;16.95;;;51.20;2227.20;;;;;;5074413;28;20383;-77
2023/02/08 09:20:11;;;;;;;;;;;51.40;2227.20;;;;;;5078539;28;20389;-77
2023/02/08 09:22:37;;;;;;;41.05;18.42;;;51.50;2227.20;;;;;;5088075;28;19913;-78
2023/02/08 09:25:03;;;;;;;;;;;51.40;2227.20;;;;;;5067894;28;20077;-76
2023/02/08 09:27:29;;;;;;;37.28;16.85;;;51.60;2227.20;;;;;;5079324;28;19966;-76
2023/02/08 09:29:54;;;;;;;;;;;51.70;2227.20;;;;;;5070226;28;20063;-76
2023/02/08 09:32:21;;;;;;;37.65;18.35;;;51.70;2227.20;;;;;;5073030;28;19908;-75
2023/02/08 09:34:47;;;;;;;38.72;17.90;;;51.80;2227.20;;;;;;5077707;28;20020;-75
2023/02/08 09:37:16;;;;;;;34.67;17.98;;;52.00;2227.20;;;;;;5072278;28;20458;-78
2023/02/08 09:39:42;;;;;;;37.53;17.40;;;76.80;2227.20;;;;;;5070978;28;20108;-78
2023/02/08 09:42:40;;;;;;;30.65;17.98;;;77.10;2227.20;;;;;;5088455;28;20036;-79
2023/02/08 09:45:30;;;;;;;34.42;16.95;;;77.40;2227.20;;;;;;5074281;28;20035;-77
2023/02/08 09:48:25;;;;;;;37.00;16.60;;;77.30;2227.20;;;;;;5079629;28;20063;-78
2023/02/08 09:51:16;;;;;;;34.60;15.57;;;77.20;2227.20;;;;;;5072293;28;20081;-78
2023/02/08 09:53:51;;;;;;;29.90;14.13;;;77.30;2227.20;;;;;;5070745;28;20490;-78
2023/02/08 09:56:22;;;;;;;37.10;15.35;;;77.30;2227.20;;;;;;5071230;28;20031;-78
2023/02/08 09:58:51;;;;;;;27.30;13.38;;;77.60;2227.20;;;;;;5071312;28;20043;-77
2023/02/08 10:01:30;;;;;;;35.97;17.48;;;77.70;2227.20;;;;;;5069691;28;20078;-78
2023/02/08 10:04:01;;;;;;;27.63;13.52;;;102.80;2227.20;;;;;;5099866;28;20028;-79
2023/02/08 10:06:29;;;;;;;30.52;15.30;;;102.60;2227.20;;;;;;5072581;28;20151;-76
2023/02/08 10:08:57;;;;;;;32.70;15.00;;;103.00;2227.20;;;;;;5075465;28;20036;-77
2023/02/08 10:11:48;;;;;;;28.63;14.07;;;102.90;2227.20;;;;;;5077914;28;20055;-77
2023/02/08 10:14:37;;;;;;;35.80;15.40;;;102.90;2227.20;;;;;;5067490;28;20477;-77
2023/02/08 10:17:05;;;;;;;28.75;15.20;;;102.90;2176.00;;;;;;5060605;28;20516;-77
2023/02/08 10:20:08;;;;;;;30.83;13.73;;;103.30;2201.60;;;;;;5052411;28;20033;-77
2023/02/08 10:22:45;;;;;;;25.85;13.45;;;103.30;2124.80;;;;;;5050977;28;20041;-77
2023/02/08 10:25:26;;;;;;;32.78;14.63;;;103.30;2099.20;;;;;;5055952;28;20029;-76
2023/02/08 10:27:58;;;;;;;31.98;15.48;;;103.10;2124.80;;;;;;5043583;28;20033;-77
2023/02/08 10:30:44;;;;;;;29.02;14.30;;;103.20;2124.80;;;;;;5064569;28;20024;-76
2023/02/08 10:33:16;;;;;;;26.63;12.80;;;103.10;2124.80;;;;;;5048213;28;20029;-77
2023/02/08 10:35:48;;;;;;;28.50;13.57;;;103.30;2124.80;;;;;;5046998;28;20052;-77
2023/02/08 10:38:19;;;;;;;26.45;14.50;;;128.30;2099.20;;;;;;5035226;28;20104;-77
2023/02/08 10:41:07;;;;;;;24.67;14.00;;;128.70;2048.00;;;;;;5038015;28;20067;-77
2023/02/08 10:43:34;;;;;;;30.55;15.38;;;128.80;2048.00;;;;;;5041544;28;20154;-77
2023/02/08 10:46:14;;;;;;;24.65;13.77;;;153.60;1996.80;;;;;;5043440;28;20025;-76
2023/02/08 10:49:07;;;;;;;29.48;13.85;;;153.60;1971.20;;;;;;5043182;28;20024;-77
2023/02/08 10:51:34;;;;;;;30.45;14.35;;;154.00;1971.20;;;;;;5045978;28;20033;-77
2023/02/08 10:54:00;;;;;;;30.15;13.23;;;153.90;1894.40;;;;;;5060042;28;20032;-77
2023/02/08 10:56:28;;;;;;;;;;;154.40;1894.40;;;;;;5084059;28;20046;-77
2023/02/08 10:58:55;;;;;;;27.80;13.23;;;154.20;1894.40;;;;;;5081234;28;19958;-76
2023/02/08 11:01:21;;;;;;;32.63;14.77;;;154.40;1894.40;;;;;;5084593;28;20151;-78
2023/02/08 11:04:00;;;;;;;;;;;154.40;1868.80;;;;;;5072632;28;20085;-76
2023/02/08 11:06:26;;;;;;;34.13;13.77;;;179.40;1817.60;;;;;;5062040;28;19909;-77
2023/02/08 11:08:57;;;;;;;34.22;15.13;;;179.70;1817.60;;;;;;5077652;28;20082;-77
2023/02/08 11:11:25;;;;;;;28.67;14.52;;;179.70;1792.00;;;;;;5082842;28;20051;-79
2023/02/08 11:13:52;;;;;;;30.13;14.77;;;179.20;1817.60;;;;;;5083378;28;20032;-79
2023/02/08 11:16:24;;;;;;;27.88;15.23;;;179.40;1817.60;;;;;;5082854;28;20048;-76
2023/02/08 11:18:57;;;;;;;27.42;14.40;;;179.40;1792.00;;;;;;5082115;28;20047;-77
2023/02/08 11:21:32;;;;;;;28.33;14.95;;;179.30;1817.60;;;;;;5080176;28;20039;-78
2023/02/08 11:24:01;;;;;;;28.50;14.88;;;179.30;1817.60;;;;;;5073865;28;20386;-78
2023/02/08 11:26:30;;;;;;;30.77;15.73;;;179.40;1817.60;;;;;;5068282;28;20123;-78
2023/02/08 11:29:10;;;;;;;25.35;13.27;;;179.70;1766.40;;;;;;5084930;28;20039;-78
2023/02/08 11:31:36;;;;;;;26.90;13.55;;;180.00;1766.40;;;;;;5076496;28;20050;-78
2023/02/08 11:34:08;;;;;;;24.27;13.85;;;179.70;1715.20;;;;;;5076105;28;20025;-78
2023/02/08 11:36:36;;;;;;;27.15;14.05;;;179.70;1715.20;;;;;;5075146;28;20377;-78
2023/02/08 11:39:28;;;;;;;26.48;13.07;;;179.90;1740.80;;;;;;5094133;28;20060;-79
2023/02/08 11:41:58;;;;;;;25.73;14.07;;;179.90;1740.80;;;;;;5080045;28;20040;-80
2023/02/08 11:44:34;;;;;;;26.10;14.68;;;204.80;1715.20;;;;;;5082239;28;20033;-76
2023/02/08 11:47:03;;;;;;;26.40;12.45;;;204.80;1689.60;;;;;;5072402;28;20039;-76
2023/02/08 11:49:37;;;;;;;28.45;13.52;;;180.10;1689.60;;;;;;5075898;28;20017;-75
2023/02/08 11:52:05;;;;;;;24.00;11.80;;;180.00;1638.40;;;;;;5071149;28;20046;-76
2023/02/08 11:54:38;;;;;;;22.70;12.55;;;180.10;1638.40;;;;;;5061867;28;20049;-76
2023/02/08 11:57:15;;;;;;;23.65;12.80;;;179.90;1664.00;;;;;;5063215;28;20032;-76
2023/02/08 11:59:41;;;;;;;27.77;14.48;;;180.00;1612.80;;;;;;5087756;28;20020;-77
2023/02/08 12:02:25;;;;;;;36.53;13.75;;;204.80;1638.40;;;;;;5080662;28;20430;-77
2023/02/08 12:04:51;;;;;;;27.63;13.63;;;205.10;1612.80;;;;;;5078912;28;20025;-76
2023/02/08 12:07:20;;;;;;;;;;;205.00;1612.80;;;;;;5081820;28;20114;-76
2023/02/08 12:10:06;;;;;;;29.27;13.75;;;180.00;1638.40;;;;;;5085845;28;19912;-78
2023/02/08 12:12:38;;;;;;;21.58;10.75;;;179.80;1638.40;;;;;;5059887;28;20040;-78
2023/02/08 12:15:10;;;;;;;31.38;14.18;;;179.60;1638.40;;;;;;5080727;28;20508;-77
2023/02/08 12:18:05;;;;;;;29.48;13.13;;;180.00;1638.40;;;;;;5061037;28;20032;-78
2023/02/08 12:20:36;;;;;;;33.55;16.52;;;179.90;1612.80;;;;;;5086269;28;20071;-77
2023/02/08 12:23:20;;;;;;;32.00;16.27;;;179.70;1612.80;;;;;;5057195;28;20102;-78
2023/02/08 12:26:08;;;;;;;34.35;17.38;;;179.80;1638.40;;;;;;5063142;28;20036;-77
2023/02/08 12:28:53;;;;;;;32.38;15.40;;;179.50;1664.00;;;;;;5062418;28;20474;-77
2023/02/08 12:31:27;;;;;;;28.40;14.70;;;179.30;1638.40;;;;;;5068139;28;20021;-76
2023/02/08 12:34:12;;;;;;;30.30;14.70;;;179.40;1638.40;;;;;;5093510;28;20025;-77
2023/02/08 12:43:23;;;;;;;26.13;12.65;;;179.70;1689.60;;;;;;5086976;28;20137;-76
2023/02/08 12:46:20;;;;;;;25.27;12.40;;;179.70;1638.40;;;;;;5082543;28;20032;-76
2023/02/08 12:48:58;;;;;;;17.45;10.63;;;179.60;1638.40;;;;;;5082871;28;20139;-77
2023/02/08 12:51:39;;;;;;;24.77;12.55;;;179.30;1664.00;;;;;;5087344;28;20024;-77
2023/02/08 12:54:29;;;;;;;27.45;12.82;;;179.40;1638.40;;;;;;5085082;28;20036;-77
2023/02/08 12:56:57;;;;;;;26.95;12.48;;;179.40;1664.00;;;;;;5087022;28;20051;-77